sensor_id;sensor_type;location;lat;lon;timestamp;temperature;humidity
53800;DHT22;39708;53.210;6.948;2023-02-15T00:01:43;-1.20;99.90
53800;DHT22;39708;53.210;6.948;2023-02-15T00:04:11;-1.30;99.90
53800;DHT22;39708;53.210;6.948;2023-02-15T00:06:37;-1.40;99.90
53800;DHT22;39708;53.210;6.948;2023-02-15T00:09:03;-1.40;99.90
53800;DHT22;39708;53.210;6.948;2023-02-15T00:11:29;-1.00;99.90
53800;DHT22;39708;53.210;6.948;2023-02-15T00:14:21;-1.40;99.90
53800;DHT22;39708;53.210;6.948;2023-02-15T00:16:48;-1.30;99.90
53800;DHT22;39708;53.210;6.948;2023-02-15T00:19:15;-1.20;99.90
53800;DHT22;39708;53.210;6.948;2023-02-15T00:21:42;-1.10;99.90
53800;DHT22;39708;53.210;6.948;2023-02-15T00:24:09;-0.90;99.90
53800;DHT22;39708;53.210;6.948;2023-02-15T00:26:38;-0.80;99.90
53800;DHT22;39708;53.210;6.948;2023-02-15T00:29:03;-0.80;99.90
53800;DHT22;39708;53.210;6.948;2023-02-15T00:31:31;-0.70;99.90
53800;DHT22;39708;53.210;6.948;2023-02-15T00:34:11;-0.80;99.90
53800;DHT22;39708;53.210;6.948;2023-02-15T00:36:38;-0.70;99.90
53800;DHT22;39708;53.210;6.948;2023-02-15T00:39:03;-0.70;99.90
53800;DHT22;39708;53.210;6.948;2023-02-15T00:41:33;-0.60;99.90
53800;DHT22;39708;53.210;6.948;2023-02-15T00:43:59;-0.60;99.90
53800;DHT22;39708;53.210;6.948;2023-02-15T00:46:24;-0.60;99.90
53800;DHT22;39708;53.210;6.948;2023-02-15T00:48:50;-0.60;99.90
53800;DHT22;39708;53.210;6.948;2023-02-15T00:51:16;-0.60;99.90
53800;DHT22;39708;53.210;6.948;2023-02-15T00:53:42;-0.50;99.90
53800;DHT22;39708;53.210;6.948;2023-02-15T00:56:10;-0.60;99.90
53800;DHT22;39708;53.210;6.948;2023-02-15T00:58:35;-0.20;99.90
53800;DHT22;39708;53.210;6.948;2023-02-15T01:01:06;-0.70;99.90
53800;DHT22;39708;53.210;6.948;2023-02-15T01:03:32;-0.80;99.90
53800;DHT22;39708;53.210;6.948;2023-02-15T01:05:58;-0.90;99.90
53800;DHT22;39708;53.210;6.948;2023-02-15T01:08:24;-1.00;99.90
53800;DHT22;39708;53.210;6.948;2023-02-15T01:10:49;-1.00;99.90
53800;DHT22;39708;53.210;6.948;2023-02-15T01:13:15;-1.00;99.90
53800;DHT22;39708;53.210;6.948;2023-02-15T01:15:42;-1.00;99.90
53800;DHT22;39708;53.210;6.948;2023-02-15T01:18:09;-1.20;99.90
53800;DHT22;39708;53.210;6.948;2023-02-15T01:20:38;-1.50;99.90
53800;DHT22;39708;53.210;6.948;2023-02-15T01:23:06;-2.10;99.90
53800;DHT22;39708;53.210;6.948;2023-02-15T01:25:34;-2.40;99.90
53800;DHT22;39708;53.210;6.948;2023-02-15T01:28:00;-2.60;99.90
53800;DHT22;39708;53.210;6.948;2023-02-15T01:30:25;-2.60;99.90
53800;DHT22;39708;53.210;6.948;2023-02-15T01:32:51;-2.60;99.90
53800;DHT22;39708;53.210;6.948;2023-02-15T01:35:17;-2.50;99.90
53800;DHT22;39708;53.210;6.948;2023-02-15T01:37:43;-2.40;99.90
53800;DHT22;39708;53.210;6.948;2023-02-15T01:40:13;-2.10;99.90
53800;DHT22;39708;53.210;6.948;2023-02-15T01:42:40;-1.30;99.90
53800;DHT22;39708;53.210;6.948;2023-02-15T01:47:57;-1.90;99.90
53800;DHT22;39708;53.210;6.948;2023-02-15T01:52:59;-2.50;99.90
53800;DHT22;39708;53.210;6.948;2023-02-15T01:55:33;-2.60;99.90
53800;DHT22;39708;53.210;6.948;2023-02-15T01:58:00;-2.70;99.90
53800;DHT22;39708;53.210;6.948;2023-02-15T02:00:26;-2.70;99.90
53800;DHT22;39708;53.210;6.948;2023-02-15T02:02:54;-2.70;99.90
53800;DHT22;39708;53.210;6.948;2023-02-15T02:05:20;-2.70;99.90
53800;DHT22;39708;53.210;6.948;2023-02-15T02:07:46;-2.60;99.90
53800;DHT22;39708;53.210;6.948;2023-02-15T02:10:19;-2.40;99.90
53800;DHT22;39708;53.210;6.948;2023-02-15T02:12:46;-2.30;99.90
53800;DHT22;39708;53.210;6.948;2023-02-15T02:15:13;-2.00;99.90
53800;DHT22;39708;53.210;6.948;2023-02-15T02:29:11;-3.10;99.90
53800;DHT22;39708;53.210;6.948;2023-02-15T02:40:11;-2.70;99.90
53800;DHT22;39708;53.210;6.948;2023-02-15T02:42:43;-2.60;99.90
53800;DHT22;39708;53.210;6.948;2023-02-15T02:45:14;-2.30;99.90
53800;DHT22;39708;53.210;6.948;2023-02-15T02:47:48;-1.90;99.90
53800;DHT22;39708;53.210;6.948;2023-02-15T02:50:21;-0.80;99.90
53800;DHT22;39708;53.210;6.948;2023-02-15T02:52:49;-1.60;99.90
53800;DHT22;39708;53.210;6.948;2023-02-15T02:58:05;-2.40;99.90
53800;DHT22;39708;53.210;6.948;2023-02-15T03:00:36;-2.00;99.90
53800;DHT22;39708;53.210;6.948;2023-02-15T03:03:24;-2.70;99.90
53800;DHT22;39708;53.210;6.948;2023-02-15T03:05:54;-3.00;99.90
53800;DHT22;39708;53.210;6.948;2023-02-15T03:08:23;-2.80;99.90
53800;DHT22;39708;53.210;6.948;2023-02-15T03:10:55;-2.70;99.90
53800;DHT22;39708;53.210;6.948;2023-02-15T03:13:22;-2.50;99.90
53800;DHT22;39708;53.210;6.948;2023-02-15T03:15:50;-2.30;99.90
53800;DHT22;39708;53.210;6.948;2023-02-15T03:18:47;-2.40;99.90
53800;DHT22;39708;53.210;6.948;2023-02-15T03:24:03;-2.20;99.90
53800;DHT22;39708;53.210;6.948;2023-02-15T03:26:33;-2.00;99.90
53800;DHT22;39708;53.210;6.948;2023-02-15T03:29:02;-2.30;99.90
53800;DHT22;39708;53.210;6.948;2023-02-15T03:31:32;-2.80;99.90
53800;DHT22;39708;53.210;6.948;2023-02-15T03:34:02;-3.00;99.90
53800;DHT22;39708;53.210;6.948;2023-02-15T03:36:36;-3.20;99.90
53800;DHT22;39708;53.210;6.948;2023-02-15T03:39:56;-3.30;99.90
53800;DHT22;39708;53.210;6.948;2023-02-15T03:42:25;-3.20;99.90
53800;DHT22;39708;53.210;6.948;2023-02-15T03:45:09;-3.10;99.90
53800;DHT22;39708;53.210;6.948;2023-02-15T03:47:47;-3.00;99.90
53800;DHT22;39708;53.210;6.948;2023-02-15T03:53:02;-2.60;99.90
53800;DHT22;39708;53.210;6.948;2023-02-15T03:55:29;-2.50;99.90
53800;DHT22;39708;53.210;6.948;2023-02-15T03:57:55;-1.80;99.90
53800;DHT22;39708;53.210;6.948;2023-02-15T04:00:46;-2.10;99.90
53800;DHT22;39708;53.210;6.948;2023-02-15T04:03:39;-2.50;99.90
53800;DHT22;39708;53.210;6.948;2023-02-15T04:06:05;-2.90;99.90
53800;DHT22;39708;53.210;6.948;2023-02-15T04:08:31;-3.30;99.90
53800;DHT22;39708;53.210;6.948;2023-02-15T04:11:15;-3.50;99.90
53800;DHT22;39708;53.210;6.948;2023-02-15T04:13:41;-3.70;99.90
53800;DHT22;39708;53.210;6.948;2023-02-15T04:16:07;-3.80;99.90
53800;DHT22;39708;53.210;6.948;2023-02-15T04:21:19;-3.70;99.90
53800;DHT22;39708;53.210;6.948;2023-02-15T04:24:03;-3.60;99.90
53800;DHT22;39708;53.210;6.948;2023-02-15T04:26:47;-3.40;99.90
53800;DHT22;39708;53.210;6.948;2023-02-15T04:29:14;-3.20;99.90
53800;DHT22;39708;53.210;6.948;2023-02-15T04:31:41;-2.30;99.90
53800;DHT22;39708;53.210;6.948;2023-02-15T04:34:08;-2.70;99.90
53800;DHT22;39708;53.210;6.948;2023-02-15T04:36:34;-2.90;99.90
53800;DHT22;39708;53.210;6.948;2023-02-15T04:38:59;-3.20;99.90
53800;DHT22;39708;53.210;6.948;2023-02-15T04:41:25;-3.30;99.90
53800;DHT22;39708;53.210;6.948;2023-02-15T04:43:51;-3.30;99.90
53800;DHT22;39708;53.210;6.948;2023-02-15T04:46:16;-3.20;99.90
53800;DHT22;39708;53.210;6.948;2023-02-15T04:48:42;-3.20;99.90
53800;DHT22;39708;53.210;6.948;2023-02-15T04:51:09;-3.00;99.90
53800;DHT22;39708;53.210;6.948;2023-02-15T04:53:35;-2.90;99.90
53800;DHT22;39708;53.210;6.948;2023-02-15T04:56:01;-2.60;99.90
53800;DHT22;39708;53.210;6.948;2023-02-15T04:58:27;-2.40;99.90
53800;DHT22;39708;53.210;6.948;2023-02-15T05:00:56;-2.10;99.90
53800;DHT22;39708;53.210;6.948;2023-02-15T05:03:22;-2.10;99.90
53800;DHT22;39708;53.210;6.948;2023-02-15T05:05:48;-1.30;99.90
53800;DHT22;39708;53.210;6.948;2023-02-15T05:08:14;-1.70;99.90
53800;DHT22;39708;53.210;6.948;2023-02-15T05:10:40;-2.40;99.90
53800;DHT22;39708;53.210;6.948;2023-02-15T05:13:05;-2.60;99.90
53800;DHT22;39708;53.210;6.948;2023-02-15T05:15:31;-2.80;99.90
53800;DHT22;39708;53.210;6.948;2023-02-15T05:17:56;-2.90;99.90
53800;DHT22;39708;53.210;6.948;2023-02-15T05:20:22;-3.20;99.90
53800;DHT22;39708;53.210;6.948;2023-02-15T05:22:48;-3.30;99.90
53800;DHT22;39708;53.210;6.948;2023-02-15T05:25:13;-3.20;99.90
53800;DHT22;39708;53.210;6.948;2023-02-15T05:27:57;-3.20;99.90
53800;DHT22;39708;53.210;6.948;2023-02-15T05:30:42;-3.10;99.90
53800;DHT22;39708;53.210;6.948;2023-02-15T05:33:08;-2.10;99.90
53800;DHT22;39708;53.210;6.948;2023-02-15T05:35:34;-2.30;99.90
53800;DHT22;39708;53.210;6.948;2023-02-15T05:38:00;-1.20;99.90
53800;DHT22;39708;53.210;6.948;2023-02-15T05:40:26;-1.90;99.90
53800;DHT22;39708;53.210;6.948;2023-02-15T05:42:52;-2.20;99.90
53800;DHT22;39708;53.210;6.948;2023-02-15T05:45:17;-2.80;99.90
53800;DHT22;39708;53.210;6.948;2023-02-15T05:47:43;-3.00;99.90
53800;DHT22;39708;53.210;6.948;2023-02-15T05:50:09;-3.00;99.90
53800;DHT22;39708;53.210;6.948;2023-02-15T05:52:36;-3.20;99.90
53800;DHT22;39708;53.210;6.948;2023-02-15T05:55:03;-3.30;99.90
53800;DHT22;39708;53.210;6.948;2023-02-15T05:57:29;-3.30;99.90
53800;DHT22;39708;53.210;6.948;2023-02-15T05:59:55;-3.30;99.90
53800;DHT22;39708;53.210;6.948;2023-02-15T06:02:21;-3.20;99.90
53800;DHT22;39708;53.210;6.948;2023-02-15T06:04:46;-2.80;99.90
53800;DHT22;39708;53.210;6.948;2023-02-15T06:07:12;-2.50;99.90
53800;DHT22;39708;53.210;6.948;2023-02-15T06:09:38;-2.50;99.90
53800;DHT22;39708;53.210;6.948;2023-02-15T06:12:03;-1.50;99.90
53800;DHT22;39708;53.210;6.948;2023-02-15T06:14:29;-2.20;99.90
53800;DHT22;39708;53.210;6.948;2023-02-15T06:16:54;-2.40;99.90
53800;DHT22;39708;53.210;6.948;2023-02-15T06:19:20;-2.30;99.90
53800;DHT22;39708;53.210;6.948;2023-02-15T06:21:46;-2.90;99.90
53800;DHT22;39708;53.210;6.948;2023-02-15T06:24:12;-3.20;99.90
53800;DHT22;39708;53.210;6.948;2023-02-15T06:26:38;-3.10;99.90
53800;DHT22;39708;53.210;6.948;2023-02-15T06:29:03;-3.20;99.90
53800;DHT22;39708;53.210;6.948;2023-02-15T06:31:30;-3.30;99.90
53800;DHT22;39708;53.210;6.948;2023-02-15T06:33:55;-3.20;99.90
53800;DHT22;39708;53.210;6.948;2023-02-15T06:36:30;-3.00;99.90
53800;DHT22;39708;53.210;6.948;2023-02-15T06:38:56;-2.60;99.90
53800;DHT22;39708;53.210;6.948;2023-02-15T06:41:22;-1.00;99.90
53800;DHT22;39708;53.210;6.948;2023-02-15T06:43:48;-1.00;99.90
53800;DHT22;39708;53.210;6.948;2023-02-15T06:46:14;-1.70;99.90
53800;DHT22;39708;53.210;6.948;2023-02-15T06:48:39;-2.30;99.90
53800;DHT22;39708;53.210;6.948;2023-02-15T06:51:05;-2.90;99.90
53800;DHT22;39708;53.210;6.948;2023-02-15T06:53:30;-3.10;99.90
53800;DHT22;39708;53.210;6.948;2023-02-15T06:56:04;-3.20;99.90
53800;DHT22;39708;53.210;6.948;2023-02-15T06:58:32;-3.40;99.90
53800;DHT22;39708;53.210;6.948;2023-02-15T07:00:58;-3.50;99.90
53800;DHT22;39708;53.210;6.948;2023-02-15T07:03:24;-3.30;99.90
53800;DHT22;39708;53.210;6.948;2023-02-15T07:05:57;-3.20;99.90
53800;DHT22;39708;53.210;6.948;2023-02-15T07:08:23;-3.10;99.90
53800;DHT22;39708;53.210;6.948;2023-02-15T07:10:50;-2.90;99.90
53800;DHT22;39708;53.210;6.948;2023-02-15T07:13:16;-2.60;99.90
53800;DHT22;39708;53.210;6.948;2023-02-15T07:15:41;-2.50;99.90
53800;DHT22;39708;53.210;6.948;2023-02-15T07:18:07;-1.50;99.90
53800;DHT22;39708;53.210;6.948;2023-02-15T07:20:34;-2.10;99.90
53800;DHT22;39708;53.210;6.948;2023-02-15T07:23:01;-2.40;99.90
53800;DHT22;39708;53.210;6.948;2023-02-15T07:25:27;-2.60;99.90
53800;DHT22;39708;53.210;6.948;2023-02-15T07:28:00;-2.70;99.90
53800;DHT22;39708;53.210;6.948;2023-02-15T07:30:27;-2.90;99.90
53800;DHT22;39708;53.210;6.948;2023-02-15T07:32:59;-2.70;99.90
53800;DHT22;39708;53.210;6.948;2023-02-15T07:35:48;-2.80;99.90
53800;DHT22;39708;53.210;6.948;2023-02-15T07:38:14;-2.50;99.90
53800;DHT22;39708;53.210;6.948;2023-02-15T07:40:40;-2.40;99.90
53800;DHT22;39708;53.210;6.948;2023-02-15T07:43:05;-2.20;99.90
53800;DHT22;39708;53.210;6.948;2023-02-15T07:45:31;-2.20;99.90
53800;DHT22;39708;53.210;6.948;2023-02-15T07:47:57;-1.60;99.90
53800;DHT22;39708;53.210;6.948;2023-02-15T07:50:23;-0.80;99.90
53800;DHT22;39708;53.210;6.948;2023-02-15T07:52:48;-0.90;99.90
53800;DHT22;39708;53.210;6.948;2023-02-15T07:55:14;-1.60;99.90
53800;DHT22;39708;53.210;6.948;2023-02-15T07:57:44;-1.30;99.90
53800;DHT22;39708;53.210;6.948;2023-02-15T08:00:11;-1.30;99.90
53800;DHT22;39708;53.210;6.948;2023-02-15T08:02:38;-0.80;99.90
53800;DHT22;39708;53.210;6.948;2023-02-15T08:05:04;-0.60;99.90
53800;DHT22;39708;53.210;6.948;2023-02-15T08:07:30;-0.70;99.90
53800;DHT22;39708;53.210;6.948;2023-02-15T08:09:56;-0.30;99.90
53800;DHT22;39708;53.210;6.948;2023-02-15T08:12:21;-0.50;99.90
53800;DHT22;39708;53.210;6.948;2023-02-15T08:14:47;-0.10;99.90
53800;DHT22;39708;53.210;6.948;2023-02-15T08:17:13;0.10;99.90
53800;DHT22;39708;53.210;6.948;2023-02-15T08:19:38;-0.20;99.90
53800;DHT22;39708;53.210;6.948;2023-02-15T08:22:06;0.20;99.90
53800;DHT22;39708;53.210;6.948;2023-02-15T08:24:36;0.30;99.90
53800;DHT22;39708;53.210;6.948;2023-02-15T08:27:06;0.30;99.90
53800;DHT22;39708;53.210;6.948;2023-02-15T08:29:32;0.30;99.90
53800;DHT22;39708;53.210;6.948;2023-02-15T08:32:07;0.20;99.90
53800;DHT22;39708;53.210;6.948;2023-02-15T08:34:37;0.60;99.90
53800;DHT22;39708;53.210;6.948;2023-02-15T08:37:03;0.40;99.90
53800;DHT22;39708;53.210;6.948;2023-02-15T08:39:29;0.80;99.90
53800;DHT22;39708;53.210;6.948;2023-02-15T08:41:55;0.60;99.90
53800;DHT22;39708;53.210;6.948;2023-02-15T08:44:21;0.80;99.90
53800;DHT22;39708;53.210;6.948;2023-02-15T08:46:48;0.90;99.90
53800;DHT22;39708;53.210;6.948;2023-02-15T08:49:19;0.90;99.90
53800;DHT22;39708;53.210;6.948;2023-02-15T08:51:46;0.90;99.90
53800;DHT22;39708;53.210;6.948;2023-02-15T08:54:14;1.00;99.90
53800;DHT22;39708;53.210;6.948;2023-02-15T08:56:42;1.20;99.90
53800;DHT22;39708;53.210;6.948;2023-02-15T08:59:13;1.10;99.90
53800;DHT22;39708;53.210;6.948;2023-02-15T09:01:39;1.40;99.90
53800;DHT22;39708;53.210;6.948;2023-02-15T09:04:07;1.70;99.90
53800;DHT22;39708;53.210;6.948;2023-02-15T09:06:38;1.60;99.90
53800;DHT22;39708;53.210;6.948;2023-02-15T09:09:05;1.40;99.90
53800;DHT22;39708;53.210;6.948;2023-02-15T09:11:34;1.70;99.90
53800;DHT22;39708;53.210;6.948;2023-02-15T09:14:07;1.80;99.90
53800;DHT22;39708;53.210;6.948;2023-02-15T09:16:35;1.60;99.90
53800;DHT22;39708;53.210;6.948;2023-02-15T09:19:02;1.90;99.90
53800;DHT22;39708;53.210;6.948;2023-02-15T09:21:30;2.80;99.90
53800;DHT22;39708;53.210;6.948;2023-02-15T09:24:01;2.10;99.90
53800;DHT22;39708;53.210;6.948;2023-02-15T09:26:29;2.20;99.90
53800;DHT22;39708;53.210;6.948;2023-02-15T09:28:57;2.30;99.90
53800;DHT22;39708;53.210;6.948;2023-02-15T09:31:31;2.30;99.90
53800;DHT22;39708;53.210;6.948;2023-02-15T09:33:58;2.40;99.90
53800;DHT22;39708;53.210;6.948;2023-02-15T09:36:31;2.50;99.90
53800;DHT22;39708;53.210;6.948;2023-02-15T09:54:52;2.90;99.90
53800;DHT22;39708;53.210;6.948;2023-02-15T09:57:38;3.10;99.90
53800;DHT22;39708;53.210;6.948;2023-02-15T10:08:40;3.40;99.90
53800;DHT22;39708;53.210;6.948;2023-02-15T10:31:50;3.60;99.90
53800;DHT22;39708;53.210;6.948;2023-02-15T10:34:23;3.50;99.90
53800;DHT22;39708;53.210;6.948;2023-02-15T10:37:09;3.60;99.90
53800;DHT22;39708;53.210;6.948;2023-02-15T10:44:52;3.90;99.90
53800;DHT22;39708;53.210;6.948;2023-02-15T10:58:29;5.40;99.90
53800;DHT22;39708;53.210;6.948;2023-02-15T11:01:25;5.50;99.90
53800;DHT22;39708;53.210;6.948;2023-02-15T11:06:50;5.60;99.90
53800;DHT22;39708;53.210;6.948;2023-02-15T11:09:20;5.80;99.90
53800;DHT22;39708;53.210;6.948;2023-02-15T11:11:55;6.00;99.90
53800;DHT22;39708;53.210;6.948;2023-02-15T11:14:47;6.50;99.90
53800;DHT22;39708;53.210;6.948;2023-02-15T11:17:18;7.10;99.90
53800;DHT22;39708;53.210;6.948;2023-02-15T11:19:56;7.70;99.90
53800;DHT22;39708;53.210;6.948;2023-02-15T11:22:23;8.10;99.90
53800;DHT22;39708;53.210;6.948;2023-02-15T11:24:50;8.40;99.90
53800;DHT22;39708;53.210;6.948;2023-02-15T11:27:22;8.70;99.90
53800;DHT22;39708;53.210;6.948;2023-02-15T11:30:03;8.50;99.90
53800;DHT22;39708;53.210;6.948;2023-02-15T11:32:38;8.40;99.90
53800;DHT22;39708;53.210;6.948;2023-02-15T11:37:41;8.30;99.90
53800;DHT22;39708;53.210;6.948;2023-02-15T11:42:46;7.90;99.90
53800;DHT22;39708;53.210;6.948;2023-02-15T11:47:46;7.50;99.90
53800;DHT22;39708;53.210;6.948;2023-02-15T11:50:20;7.50;99.90
53800;DHT22;39708;53.210;6.948;2023-02-15T11:52:49;7.40;99.90
53800;DHT22;39708;53.210;6.948;2023-02-15T11:55:22;7.40;99.90
53800;DHT22;39708;53.210;6.948;2023-02-15T11:58:37;7.50;99.90
53800;DHT22;39708;53.210;6.948;2023-02-15T12:00:43;7.50;99.90
53800;DHT22;39708;53.210;6.948;2023-02-15T12:03:22;7.40;99.90
53800;DHT22;39708;53.210;6.948;2023-02-15T12:06:01;7.70;99.90
53800;DHT22;39708;53.210;6.948;2023-02-15T12:08:40;7.80;99.90
53800;DHT22;39708;53.210;6.948;2023-02-15T12:11:09;7.80;99.90
53800;DHT22;39708;53.210;6.948;2023-02-15T12:13:57;7.90;99.90
53800;DHT22;39708;53.210;6.948;2023-02-15T12:16:26;8.00;99.90
53800;DHT22;39708;53.210;6.948;2023-02-15T12:18:54;8.10;99.90
53800;DHT22;39708;53.210;6.948;2023-02-15T12:21:33;8.20;99.90
53800;DHT22;39708;53.210;6.948;2023-02-15T12:24:38;8.40;99.90
53800;DHT22;39708;53.210;6.948;2023-02-15T12:29:43;8.60;99.90
53800;DHT22;39708;53.210;6.948;2023-02-15T12:32:33;8.70;99.90
53800;DHT22;39708;53.210;6.948;2023-02-15T12:35:14;8.90;99.90
53800;DHT22;39708;53.210;6.948;2023-02-15T12:37:57;8.90;99.90
53800;DHT22;39708;53.210;6.948;2023-02-15T12:40:29;9.00;99.90
53800;DHT22;39708;53.210;6.948;2023-02-15T12:42:55;9.10;99.90
53800;DHT22;39708;53.210;6.948;2023-02-15T12:50:37;9.20;99.90
53800;DHT22;39708;53.210;6.948;2023-02-15T12:53:08;9.30;99.90
53800;DHT22;39708;53.210;6.948;2023-02-15T12:55:37;9.40;99.90
53800;DHT22;39708;53.210;6.948;2023-02-15T12:58:16;9.50;99.90
53800;DHT22;39708;53.210;6.948;2023-02-15T13:00:43;9.40;99.90
53800;DHT22;39708;53.210;6.948;2023-02-15T13:03:21;9.40;99.90
53800;DHT22;39708;53.210;6.948;2023-02-15T13:05:51;9.40;99.90
53800;DHT22;39708;53.210;6.948;2023-02-15T13:08:27;9.40;99.90
53800;DHT22;39708;53.210;6.948;2023-02-15T13:11:04;9.30;99.90
53800;DHT22;39708;53.210;6.948;2023-02-15T13:13:35;9.40;99.90
53800;DHT22;39708;53.210;6.948;2023-02-15T13:16:11;9.40;99.90
53800;DHT22;39708;53.210;6.948;2023-02-15T13:18:41;9.50;99.90
53800;DHT22;39708;53.210;6.948;2023-02-15T13:21:14;9.50;99.90
53800;DHT22;39708;53.210;6.948;2023-02-15T13:26:44;9.60;99.90
53800;DHT22;39708;53.210;6.948;2023-02-15T13:29:20;9.60;99.90
53800;DHT22;39708;53.210;6.948;2023-02-15T13:31:46;9.60;99.90
53800;DHT22;39708;53.210;6.948;2023-02-15T13:34:36;9.50;99.90
53800;DHT22;39708;53.210;6.948;2023-02-15T13:37:17;9.50;99.90
53800;DHT22;39708;53.210;6.948;2023-02-15T13:53:36;9.30;99.90
53800;DHT22;39708;53.210;6.948;2023-02-15T13:56:28;9.30;99.90
53800;DHT22;39708;53.210;6.948;2023-02-15T14:02:30;9.40;99.90
53800;DHT22;39708;53.210;6.948;2023-02-15T14:10:21;9.50;99.90
53800;DHT22;39708;53.210;6.948;2023-02-15T14:15:50;9.50;99.90
53800;DHT22;39708;53.210;6.948;2023-02-15T14:21:32;9.50;99.90
53800;DHT22;39708;53.210;6.948;2023-02-15T14:27:18;9.50;99.90
53800;DHT22;39708;53.210;6.948;2023-02-15T14:29:59;9.50;99.90
53800;DHT22;39708;53.210;6.948;2023-02-15T14:35:16;9.80;99.90
53800;DHT22;39708;53.210;6.948;2023-02-15T14:37:49;9.50;99.90
53800;DHT22;39708;53.210;6.948;2023-02-15T14:40:51;9.50;99.90
53800;DHT22;39708;53.210;6.948;2023-02-15T14:46:26;9.60;99.90
53800;DHT22;39708;53.210;6.948;2023-02-15T14:49:03;9.60;99.90
53800;DHT22;39708;53.210;6.948;2023-02-15T14:57:20;9.60;99.90
53800;DHT22;39708;53.210;6.948;2023-02-15T14:59:56;9.40;99.90
53800;DHT22;39708;53.210;6.948;2023-02-15T15:02:29;9.40;99.90
53800;DHT22;39708;53.210;6.948;2023-02-15T15:05:11;9.30;99.90
53800;DHT22;39708;53.210;6.948;2023-02-15T15:07:45;9.20;99.90
53800;DHT22;39708;53.210;6.948;2023-02-15T15:12:48;9.10;99.90
53800;DHT22;39708;53.210;6.948;2023-02-15T15:25:45;8.80;99.90
53800;DHT22;39708;53.210;6.948;2023-02-15T15:42:53;8.50;99.90
53800;DHT22;39708;53.210;6.948;2023-02-15T15:48:46;8.30;99.90
53800;DHT22;39708;53.210;6.948;2023-02-15T15:51:21;8.20;99.90
53800;DHT22;39708;53.210;6.948;2023-02-15T15:53:50;8.30;99.90
53800;DHT22;39708;53.210;6.948;2023-02-15T15:56:26;8.30;99.90
53800;DHT22;39708;53.210;6.948;2023-02-15T15:58:56;8.10;99.90
53800;DHT22;39708;53.210;6.948;2023-02-15T16:01:34;8.10;99.90
53800;DHT22;39708;53.210;6.948;2023-02-15T16:04:01;8.00;99.90
53800;DHT22;39708;53.210;6.948;2023-02-15T16:06:38;7.90;99.90
53800;DHT22;39708;53.210;6.948;2023-02-15T16:11:56;7.70;99.90
53800;DHT22;39708;53.210;6.948;2023-02-15T16:14:37;7.70;99.90
53800;DHT22;39708;53.210;6.948;2023-02-15T16:17:13;7.80;99.90
53800;DHT22;39708;53.210;6.948;2023-02-15T16:19:43;7.60;99.90
53800;DHT22;39708;53.210;6.948;2023-02-15T16:22:23;7.50;99.90
53800;DHT22;39708;53.210;6.948;2023-02-15T16:27:44;7.40;99.90
53800;DHT22;39708;53.210;6.948;2023-02-15T16:32:46;7.30;99.90
53800;DHT22;39708;53.210;6.948;2023-02-15T16:35:17;7.20;99.90
53800;DHT22;39708;53.210;6.948;2023-02-15T16:37:43;7.20;99.90
53800;DHT22;39708;53.210;6.948;2023-02-15T16:42:52;7.10;99.90
53800;DHT22;39708;53.210;6.948;2023-02-15T16:45:22;7.00;99.90
53800;DHT22;39708;53.210;6.948;2023-02-15T16:47:53;7.00;99.90
53800;DHT22;39708;53.210;6.948;2023-02-15T16:50:32;6.90;99.90
53800;DHT22;39708;53.210;6.948;2023-02-15T16:52:59;6.90;99.90
53800;DHT22;39708;53.210;6.948;2023-02-15T16:55:27;6.80;99.90
53800;DHT22;39708;53.210;6.948;2023-02-15T16:58:00;6.90;99.90
53800;DHT22;39708;53.210;6.948;2023-02-15T17:00:31;6.90;99.90
53800;DHT22;39708;53.210;6.948;2023-02-15T17:03:02;6.70;99.90
53800;DHT22;39708;53.210;6.948;2023-02-15T17:05:40;6.60;99.90
53800;DHT22;39708;53.210;6.948;2023-02-15T17:08:19;6.50;99.90
53800;DHT22;39708;53.210;6.948;2023-02-15T17:13:25;6.40;99.90
53800;DHT22;39708;53.210;6.948;2023-02-15T17:18:44;6.40;99.90
53800;DHT22;39708;53.210;6.948;2023-02-15T17:21:23;6.70;99.90
53800;DHT22;39708;53.210;6.948;2023-02-15T17:23:51;6.30;99.90
53800;DHT22;39708;53.210;6.948;2023-02-15T17:26:25;6.20;99.90
53800;DHT22;39708;53.210;6.948;2023-02-15T17:28:54;6.10;99.90
53800;DHT22;39708;53.210;6.948;2023-02-15T17:31:22;6.00;99.90
53800;DHT22;39708;53.210;6.948;2023-02-15T17:33:49;6.00;99.90
53800;DHT22;39708;53.210;6.948;2023-02-15T17:36:27;5.90;99.90
53800;DHT22;39708;53.210;6.948;2023-02-15T17:41:23;5.80;99.90
53800;DHT22;39708;53.210;6.948;2023-02-15T17:43:49;5.70;99.90
53800;DHT22;39708;53.210;6.948;2023-02-15T17:46:15;5.70;99.90
53800;DHT22;39708;53.210;6.948;2023-02-15T17:48:48;5.70;99.90
53800;DHT22;39708;53.210;6.948;2023-02-15T17:51:15;5.50;99.90
53800;DHT22;39708;53.210;6.948;2023-02-15T17:53:41;5.70;99.90
53800;DHT22;39708;53.210;6.948;2023-02-15T17:56:27;5.40;99.90
53800;DHT22;39708;53.210;6.948;2023-02-15T17:58:53;5.30;99.90
53800;DHT22;39708;53.210;6.948;2023-02-15T18:01:21;5.30;99.90
53800;DHT22;39708;53.210;6.948;2023-02-15T18:04:08;5.30;99.90
53800;DHT22;39708;53.210;6.948;2023-02-15T18:06:54;6.10;99.90
53800;DHT22;39708;53.210;6.948;2023-02-15T18:09:39;5.30;99.90
53800;DHT22;39708;53.210;6.948;2023-02-15T18:12:25;5.30;99.90
53800;DHT22;39708;53.210;6.948;2023-02-15T18:14:52;5.40;99.90
53800;DHT22;39708;53.210;6.948;2023-02-15T18:17:28;5.60;99.90
53800;DHT22;39708;53.210;6.948;2023-02-15T18:19:54;5.40;99.90
53800;DHT22;39708;53.210;6.948;2023-02-15T18:22:20;5.70;99.90
53800;DHT22;39708;53.210;6.948;2023-02-15T18:24:48;5.40;99.90
53800;DHT22;39708;53.210;6.948;2023-02-15T18:27:15;5.50;99.90
53800;DHT22;39708;53.210;6.948;2023-02-15T18:29:41;5.60;99.90
53800;DHT22;39708;53.210;6.948;2023-02-15T18:32:12;5.60;99.90
53800;DHT22;39708;53.210;6.948;2023-02-15T18:34:41;5.70;99.90
53800;DHT22;39708;53.210;6.948;2023-02-15T18:37:14;6.00;99.90
53800;DHT22;39708;53.210;6.948;2023-02-15T18:39:46;5.80;99.90
53800;DHT22;39708;53.210;6.948;2023-02-15T18:42:24;5.80;99.90
53800;DHT22;39708;53.210;6.948;2023-02-15T18:45:03;5.80;99.90
53800;DHT22;39708;53.210;6.948;2023-02-15T18:47:32;5.90;99.90
53800;DHT22;39708;53.210;6.948;2023-02-15T18:49:57;5.90;99.90
53800;DHT22;39708;53.210;6.948;2023-02-15T18:52:26;5.70;99.90
53800;DHT22;39708;53.210;6.948;2023-02-15T18:54:56;5.70;99.90
53800;DHT22;39708;53.210;6.948;2023-02-15T18:57:22;5.60;99.90
53800;DHT22;39708;53.210;6.948;2023-02-15T18:59:48;5.60;99.90
53800;DHT22;39708;53.210;6.948;2023-02-15T19:02:16;5.60;99.90
53800;DHT22;39708;53.210;6.948;2023-02-15T19:04:42;5.60;99.90
53800;DHT22;39708;53.210;6.948;2023-02-15T19:07:16;5.50;99.90
53800;DHT22;39708;53.210;6.948;2023-02-15T19:09:44;5.50;99.90
53800;DHT22;39708;53.210;6.948;2023-02-15T19:12:12;5.50;99.90
53800;DHT22;39708;53.210;6.948;2023-02-15T19:14:38;5.40;99.90
53800;DHT22;39708;53.210;6.948;2023-02-15T19:17:08;5.60;99.90
53800;DHT22;39708;53.210;6.948;2023-02-15T19:19:34;5.40;99.90
53800;DHT22;39708;53.210;6.948;2023-02-15T19:22:01;5.40;99.90
53800;DHT22;39708;53.210;6.948;2023-02-15T19:24:38;5.30;99.90
53800;DHT22;39708;53.210;6.948;2023-02-15T19:27:33;5.30;99.90
53800;DHT22;39708;53.210;6.948;2023-02-15T19:30:00;5.30;99.90
53800;DHT22;39708;53.210;6.948;2023-02-15T19:32:27;5.30;99.90